Terminal Aerodrome Forecast
Issued by NWS

Home | Current Version | Previous Version | Text Only | Print | Product List | Glossary On
Versions: 1 2 3 4 5 6 7 8 9 10 11 12 13 14 15 16
000
FTUS45 KVEF 310600 AAA
TAFVGT
TAF AMD
KVGT 310659Z 3107/0106 34008KT P6SM SCT250
     FM311800 06005KT P6SM SCT110 SCT250
     FM312300 32010KT P6SM SCT110 SCT250=

USA.gov is the U.S. government's official web portal to all federal, state and local government web resources and services.